Puropanmaru No.3 — JD3322 — position and weather

sailwx.info

Track history (hours):
 
Tides and Currents Weather Stations Pressure Air Temp Water Temp Dewpoint Dewpoint Depression Visibility Wind Speed Wind Dir Waves Ship Positions

Puropanmaru No.3

Last reported at 2014-Aug-29 13:25 UTC. Time now 2014-Sep-01 23:58 UTC.
Position N 34°48' E 139°08'.

Length 68 m; draft 4.5 m.

Type: Tanker. MMSI: 431003365.

Date/timePositionNaut miles runAvg speedWind from/ knotsBaromVisibWave heightAir tempDewpointWater temp
2014-Aug-29 13:25N 34°48' E 139°08'1612.8
2014-Aug-29 12:09N 34°59' E 139°23'712.3
2014-Aug-29 11:33N 35°03' E 139°30'1212.6
2014-Aug-29 10:33N 35°09' E 139°43'1211.9
2014-Aug-29 09:33N 35°21' E 139°42'1212.0
2014-Aug-29 08:33N 35°30' E 139°52'10 9.4
2014-Aug-29 07:32N 35°32' E 140°03'0 0.0
2014-Aug-29 06:32N 35°32' E 140°03'0 0.0
2014-Aug-29 05:32N 35°32' E 140°03'0 0.0
2014-Aug-29 04:29N 35°32' E 140°03'0 0.0
2014-Aug-29 03:29N 35°32' E 140°03'1 1.6
2014-Aug-29 02:33N 35°33' E 140°04'1 0.9
2014-Aug-29 01:30N 35°33' E 140°05'0 0.0
2014-Aug-29 00:33N 35°33' E 140°05'0 0.0
2014-Aug-28 23:33N 35°33' E 140°05'0 0.0
2014-Aug-28 22:33N 35°33' E 140°05'0 0.0
2014-Aug-28 21:33N 35°33' E 140°05'0 0.0
2014-Aug-28 20:30N 35°33' E 140°05'0 0.0
2014-Aug-28 19:30N 35°33' E 140°05'0 0.0
2014-Aug-28 18:33N 35°33' E 140°05'0 0.0
2014-Aug-28 17:33N 35°33' E 140°05'0 0.0
2014-Aug-28 16:27N 35°33' E 140°05'0 0.0
2014-Aug-28 15:30N 35°33' E 140°05'0 0.0
2014-Aug-28 14:33N 35°33' E 140°05'0 0.0
2014-Aug-28 13:33N 35°33' E 140°05'0 0.0
2014-Aug-28 12:33N 35°33' E 140°05'0 0.0
2014-Aug-28 11:30N 35°33' E 140°05'0 0.0
2014-Aug-28 10:33N 35°33' E 140°05'0 0.0
2014-Aug-28 09:30N 35°33' E 140°05'0 0.0
2014-Aug-28 08:27N 35°33' E 140°05'0 0.0
2014-Aug-28 07:33N 35°33' E 140°05'0 0.0
2014-Aug-28 06:33N 35°33' E 140°05'0 0.0
2014-Aug-28 05:33N 35°33' E 140°05'0 0.0
2014-Aug-28 04:27N 35°33' E 140°05'0 0.0
2014-Aug-28 03:33N 35°33' E 140°05'0 0.0
2014-Aug-28 02:33N 35°33' E 140°05'0 0.0
2014-Aug-28 01:27N 35°33' E 140°05'0 0.0
2014-Aug-28 00:33N 35°33' E 140°05'0 0.0
2014-Aug-27 23:33N 35°33' E 140°05'0 0.0
2014-Aug-27 22:33N 35°33' E 140°05'0 0.0
2014-Aug-27 21:33N 35°33' E 140°05'0 0.0
2014-Aug-27 20:33N 35°33' E 140°05'0 0.0
2014-Aug-27 19:33N 35°33' E 140°05'0 0.0
2014-Aug-27 18:33N 35°33' E 140°05'0 0.0
2014-Aug-27 17:33N 35°33' E 140°05'0 0.0
2014-Aug-27 16:30N 35°33' E 140°05'0 0.0
2014-Aug-27 15:30N 35°33' E 140°05'0 0.0
2014-Aug-27 14:33N 35°33' E 140°05'0 0.0
2014-Aug-27 13:33N 35°33' E 140°05'0 0.0
2014-Aug-27 12:30N 35°33' E 140°05'0 0.0
2014-Aug-27 11:29N 35°33' E 140°05'0 0.0
2014-Aug-27 10:29N 35°33' E 140°05'0 0.0
2014-Aug-27 09:29N 35°33' E 140°05'3 3.4
2014-Aug-27 08:34N 35°33' E 140°01'1212.3
2014-Aug-27 07:33N 35°26' E 139°49'1110.9
2014-Aug-27 06:34N 35°15' E 139°47'1211.6
2014-Aug-27 05:34N 35°04' E 139°42'  
2014-Aug-24 11:26N 34°45' E 139°06'1112.6
2014-Aug-24 10:33N 34°55' E 139°13'1211.8
2014-Aug-24 09:33N 35°00' E 139°26'1212.2
2014-Aug-24 08:33N 35°06' E 139°39'1111.3
2014-Aug-24 07:33N 35°16' E 139°46'1010.4
2014-Aug-24 06:34N 35°26' E 139°46'1212.0
2014-Aug-24 05:34N 35°32' E 139°59'4 3.9
2014-Aug-24 04:34N 35°32' E 140°03'0 0.0
2014-Aug-24 03:33N 35°32' E 140°03'0 0.0
2014-Aug-24 02:33N 35°32' E 140°03'0 0.0
2014-Aug-24 01:33N 35°32' E 140°03'0 0.2
2014-Aug-24 00:34N 35°32' E 140°03'8 8.1
2014-Aug-23 23:34N 35°29' E 139°54'0 0.2
2014-Aug-23 22:31N 35°29' E 139°54'0 0.0
2014-Aug-23 21:31N 35°29' E 139°54'0 0.1
2014-Aug-23 20:28N 35°29' E 139°54'9 9.6
2014-Aug-23 19:33N 35°23' E 139°46'59 2.1
2014-Aug-22 15:28N 35°58' E 140°44'2210.7
2014-Aug-22 13:26N 35°38' E 140°52'1313.0
2014-Aug-22 12:28N 35°28' E 140°42'1612.8
2014-Aug-22 11:13N 35°15' E 140°30'4211.5
2014-Aug-22 07:34N 34°57' E 139°44'1212.1
2014-Aug-22 06:33N 35°09' E 139°46'1211.6
2014-Aug-22 05:33N 35°21' E 139°42'1111.4
2014-Aug-22 04:33N 35°30' E 139°51'1010.1
2014-Aug-22 03:33N 35°32' E 140°03'0 0.0
2014-Aug-22 02:33N 35°32' E 140°03'0 0.0
2014-Aug-22 01:33N 35°32' E 140°03'0 0.0
2014-Aug-22 00:33N 35°32' E 140°03'2 1.6
2014-Aug-21 23:33N 35°33' E 140°03'2 2.0
2014-Aug-21 22:33N 35°33' E 140°05'0 0.1
2014-Aug-21 21:33N 35°33' E 140°05'0 0.0
2014-Aug-21 20:33N 35°33' E 140°05'0 0.0
2014-Aug-21 19:33N 35°33' E 140°05'0 0.0
2014-Aug-21 18:27N 35°33' E 140°05'0 0.0
2014-Aug-21 17:33N 35°33' E 140°05'0 0.0
2014-Aug-21 16:33N 35°33' E 140°05'0 0.0
2014-Aug-21 15:33N 35°33' E 140°05'0 0.0
2014-Aug-21 14:21N 35°33' E 140°05'0 0.0
2014-Aug-21 13:33N 35°33' E 140°05'0 0.0
2014-Aug-21 12:24N 35°33' E 140°05'0 0.0
2014-Aug-21 11:33N 35°33' E 140°05'0 0.1
2014-Aug-21 10:33N 35°33' E 140°05'0 0.0
2014-Aug-21 09:33N 35°33' E 140°05'0 0.0
2014-Aug-21 08:33N 35°33' E 140°05'0 0.0
2014-Aug-21 07:33N 35°33' E 140°05'0 0.0
2014-Aug-21 06:33N 35°33' E 140°05'0 0.0
2014-Aug-21 05:27N 35°33' E 140°05'0 0.0
2014-Aug-21 04:33N 35°33' E 140°05'0 0.0
2014-Aug-21 03:33N 35°33' E 140°05'0 0.0
2014-Aug-21 02:33N 35°33' E 140°05'0 0.0
2014-Aug-21 01:30N 35°33' E 140°05'0 0.0
2014-Aug-21 00:33N 35°33' E 140°05'0 0.0
2014-Aug-20 23:27N 35°33' E 140°05'0 0.0
2014-Aug-20 22:33N 35°33' E 140°05'0 0.0
2014-Aug-20 21:33N 35°33' E 140°05'0 0.0
2014-Aug-20 20:33N 35°33' E 140°05'0 0.0
2014-Aug-20 19:33N 35°33' E 140°05'0 0.0
2014-Aug-20 18:33N 35°33' E 140°05'0 0.0
2014-Aug-20 17:24N 35°33' E 140°05'0 0.0
2014-Aug-20 16:33N 35°33' E 140°05'0 0.0
2014-Aug-20 15:30N 35°33' E 140°05'0 0.1
2014-Aug-20 14:30N 35°33' E 140°05'0 0.0
2014-Aug-20 13:33N 35°33' E 140°05'0 0.0
2014-Aug-20 12:33N 35°33' E 140°05'0 0.0
2014-Aug-20 11:30N 35°33' E 140°05'0 0.0
2014-Aug-20 10:30N 35°33' E 140°05'0 0.0
2014-Aug-20 09:30N 35°33' E 140°05'0 0.0
2014-Aug-20 08:24N 35°33' E 140°05'0 0.1
2014-Aug-20 07:32N 35°33' E 140°05'1010.2
2014-Aug-20 06:33N 35°29' E 139°54'1312.6
2014-Aug-20 05:33N 35°19' E 139°44'1212.0
2014-Aug-20 04:33N 35°07' E 139°45'1313.3
2014-Aug-20 03:33N 34°58' E 139°33'2014.4
2014-Aug-20 02:11N 34°46' E 139°14'  
Track history (hours):
 
Tides and Currents Weather Stations Pressure Air Temp Water Temp Dewpoint Dewpoint Depression Visibility Wind Speed Wind Dir Waves Ship Positions

Puropanmaru No.3

Last reported at 2014-Aug-29 13:25 UTC. Time now 2014-Sep-01 23:58 UTC.
Position N 34°48' E 139°08'.

Length 68 m; draft 4.5 m.

Type: Tanker. MMSI: 431003365.

Date/timePositionNaut miles runAvg speedWind from/ knotsBaromVisibWave heightAir tempDewpointWater temp
2014-Aug-29 13:25N 34°48' E 139°08'1612.8
2014-Aug-29 12:09N 34°59' E 139°23'712.3
2014-Aug-29 11:33N 35°03' E 139°30'1212.6
2014-Aug-29 10:33N 35°09' E 139°43'1211.9
2014-Aug-29 09:33N 35°21' E 139°42'1212.0
2014-Aug-29 08:33N 35°30' E 139°52'10 9.4
2014-Aug-29 07:32N 35°32' E 140°03'0 0.0
2014-Aug-29 06:32N 35°32' E 140°03'0 0.0
2014-Aug-29 05:32N 35°32' E 140°03'0 0.0
2014-Aug-29 04:29N 35°32' E 140°03'0 0.0
2014-Aug-29 03:29N 35°32' E 140°03'1 1.6
2014-Aug-29 02:33N 35°33' E 140°04'1 0.9
2014-Aug-29 01:30N 35°33' E 140°05'0 0.0
2014-Aug-29 00:33N 35°33' E 140°05'0 0.0
2014-Aug-28 23:33N 35°33' E 140°05'0 0.0
2014-Aug-28 22:33N 35°33' E 140°05'0 0.0
2014-Aug-28 21:33N 35°33' E 140°05'0 0.0
2014-Aug-28 20:30N 35°33' E 140°05'0 0.0
2014-Aug-28 19:30N 35°33' E 140°05'0 0.0
2014-Aug-28 18:33N 35°33' E 140°05'0 0.0
2014-Aug-28 17:33N 35°33' E 140°05'0 0.0
2014-Aug-28 16:27N 35°33' E 140°05'0 0.0
2014-Aug-28 15:30N 35°33' E 140°05'0 0.0
2014-Aug-28 14:33N 35°33' E 140°05'0 0.0
2014-Aug-28 13:33N 35°33' E 140°05'0 0.0
2014-Aug-28 12:33N 35°33' E 140°05'0 0.0
2014-Aug-28 11:30N 35°33' E 140°05'0 0.0
2014-Aug-28 10:33N 35°33' E 140°05'0 0.0
2014-Aug-28 09:30N 35°33' E 140°05'0 0.0
2014-Aug-28 08:27N 35°33' E 140°05'0 0.0
2014-Aug-28 07:33N 35°33' E 140°05'0 0.0
2014-Aug-28 06:33N 35°33' E 140°05'0 0.0
2014-Aug-28 05:33N 35°33' E 140°05'0 0.0
2014-Aug-28 04:27N 35°33' E 140°05'0 0.0
2014-Aug-28 03:33N 35°33' E 140°05'0 0.0
2014-Aug-28 02:33N 35°33' E 140°05'0 0.0
2014-Aug-28 01:27N 35°33' E 140°05'0 0.0
2014-Aug-28 00:33N 35°33' E 140°05'0 0.0
2014-Aug-27 23:33N 35°33' E 140°05'0 0.0
2014-Aug-27 22:33N 35°33' E 140°05'0 0.0
2014-Aug-27 21:33N 35°33' E 140°05'0 0.0
2014-Aug-27 20:33N 35°33' E 140°05'0 0.0
2014-Aug-27 19:33N 35°33' E 140°05'0 0.0
2014-Aug-27 18:33N 35°33' E 140°05'0 0.0
2014-Aug-27 17:33N 35°33' E 140°05'0 0.0
2014-Aug-27 16:30N 35°33' E 140°05'0 0.0
2014-Aug-27 15:30N 35°33' E 140°05'0 0.0
2014-Aug-27 14:33N 35°33' E 140°05'0 0.0
2014-Aug-27 13:33N 35°33' E 140°05'0 0.0
2014-Aug-27 12:30N 35°33' E 140°05'0 0.0
2014-Aug-27 11:29N 35°33' E 140°05'0 0.0
2014-Aug-27 10:29N 35°33' E 140°05'0 0.0
2014-Aug-27 09:29N 35°33' E 140°05'3 3.4
2014-Aug-27 08:34N 35°33' E 140°01'1212.3
2014-Aug-27 07:33N 35°26' E 139°49'1110.9
2014-Aug-27 06:34N 35°15' E 139°47'1211.6
2014-Aug-27 05:34N 35°04' E 139°42'  
2014-Aug-24 11:26N 34°45' E 139°06'1112.6
2014-Aug-24 10:33N 34°55' E 139°13'1211.8
2014-Aug-24 09:33N 35°00' E 139°26'1212.2
2014-Aug-24 08:33N 35°06' E 139°39'1111.3
2014-Aug-24 07:33N 35°16' E 139°46'1010.4
2014-Aug-24 06:34N 35°26' E 139°46'1212.0
2014-Aug-24 05:34N 35°32' E 139°59'4 3.9
2014-Aug-24 04:34N 35°32' E 140°03'0 0.0
2014-Aug-24 03:33N 35°32' E 140°03'0 0.0
2014-Aug-24 02:33N 35°32' E 140°03'0 0.0
2014-Aug-24 01:33N 35°32' E 140°03'0 0.2
2014-Aug-24 00:34N 35°32' E 140°03'8 8.1
2014-Aug-23 23:34N 35°29' E 139°54'0 0.2
2014-Aug-23 22:31N 35°29' E 139°54'0 0.0
2014-Aug-23 21:31N 35°29' E 139°54'0 0.1
2014-Aug-23 20:28N 35°29' E 139°54'9 9.6
2014-Aug-23 19:33N 35°23' E 139°46'59 2.1
2014-Aug-22 15:28N 35°58' E 140°44'2210.7
2014-Aug-22 13:26N 35°38' E 140°52'1313.0
2014-Aug-22 12:28N 35°28' E 140°42'1612.8
2014-Aug-22 11:13N 35°15' E 140°30'4211.5
2014-Aug-22 07:34N 34°57' E 139°44'1212.1
2014-Aug-22 06:33N 35°09' E 139°46'1211.6
2014-Aug-22 05:33N 35°21' E 139°42'1111.4
2014-Aug-22 04:33N 35°30' E 139°51'1010.1
2014-Aug-22 03:33N 35°32' E 140°03'0 0.0
2014-Aug-22 02:33N 35°32' E 140°03'0 0.0
2014-Aug-22 01:33N 35°32' E 140°03'0 0.0
2014-Aug-22 00:33N 35°32' E 140°03'2 1.6
2014-Aug-21 23:33N 35°33' E 140°03'2 2.0
2014-Aug-21 22:33N 35°33' E 140°05'0 0.1
2014-Aug-21 21:33N 35°33' E 140°05'0 0.0
2014-Aug-21 20:33N 35°33' E 140°05'0 0.0
2014-Aug-21 19:33N 35°33' E 140°05'0 0.0
2014-Aug-21 18:27N 35°33' E 140°05'0 0.0
2014-Aug-21 17:33N 35°33' E 140°05'0 0.0
2014-Aug-21 16:33N 35°33' E 140°05'0 0.0
2014-Aug-21 15:33N 35°33' E 140°05'0 0.0
2014-Aug-21 14:21N 35°33' E 140°05'0 0.0
2014-Aug-21 13:33N 35°33' E 140°05'0 0.0
2014-Aug-21 12:24N 35°33' E 140°05'0 0.0
2014-Aug-21 11:33N 35°33' E 140°05'0 0.1
2014-Aug-21 10:33N 35°33' E 140°05'0 0.0
2014-Aug-21 09:33N 35°33' E 140°05'0 0.0
2014-Aug-21 08:33N 35°33' E 140°05'0 0.0
2014-Aug-21 07:33N 35°33' E 140°05'0 0.0
2014-Aug-21 06:33N 35°33' E 140°05'0 0.0
2014-Aug-21 05:27N 35°33' E 140°05'0 0.0
2014-Aug-21 04:33N 35°33' E 140°05'0 0.0
2014-Aug-21 03:33N 35°33' E 140°05'0 0.0
2014-Aug-21 02:33N 35°33' E 140°05'0 0.0
2014-Aug-21 01:30N 35°33' E 140°05'0 0.0
2014-Aug-21 00:33N 35°33' E 140°05'0 0.0
2014-Aug-20 23:27N 35°33' E 140°05'0 0.0
2014-Aug-20 22:33N 35°33' E 140°05'0 0.0
2014-Aug-20 21:33N 35°33' E 140°05'0 0.0
2014-Aug-20 20:33N 35°33' E 140°05'0 0.0
2014-Aug-20 19:33N 35°33' E 140°05'0 0.0
2014-Aug-20 18:33N 35°33' E 140°05'0 0.0
2014-Aug-20 17:24N 35°33' E 140°05'0 0.0
2014-Aug-20 16:33N 35°33' E 140°05'0 0.0
2014-Aug-20 15:30N 35°33' E 140°05'0 0.1
2014-Aug-20 14:30N 35°33' E 140°05'0 0.0
2014-Aug-20 13:33N 35°33' E 140°05'0 0.0
2014-Aug-20 12:33N 35°33' E 140°05'0 0.0
2014-Aug-20 11:30N 35°33' E 140°05'0 0.0
2014-Aug-20 10:30N 35°33' E 140°05'0 0.0
2014-Aug-20 09:30N 35°33' E 140°05'0 0.0
2014-Aug-20 08:24N 35°33' E 140°05'0 0.1
2014-Aug-20 07:32N 35°33' E 140°05'1010.2
2014-Aug-20 06:33N 35°29' E 139°54'1312.6
2014-Aug-20 05:33N 35°19' E 139°44'1212.0
2014-Aug-20 04:33N 35°07' E 139°45'1313.3
2014-Aug-20 03:33N 34°58' E 139°33'2014.4
2014-Aug-20 02:11N 34°46' E 139°14'  

Dump ship's entire track history